Time;durP1;ratioP1;P1;durP2;ratioP2;P2;SDS_P1;SDS_P2;PMS_P1;PMS_P2;Temp;Humidity;BMP_temperature;BMP_pressure;BME280_temperature;BME280_humidity;BME280_pressure;Samples;Min_cycle;Max_cycle;Signal;HPM_P1;HPM_P2
2020/12/10 00:00:47;;;;;;;6.03;3.22;;;20.50;38.30;;;;;;5071562;28;20025;-77
2020/12/10 00:03:13;;;;;;;7.25;3.30;;;20.50;38.40;;;;;;5054831;28;20029;-77
2020/12/10 00:05:38;;;;;;;5.70;3.30;;;20.50;38.50;;;;;;5063740;28;20458;-77
2020/12/10 00:08:04;;;;;;;4.63;2.13;;;20.50;38.50;;;;;;5036380;28;20036;-77
2020/12/10 00:10:30;;;;;;;5.53;2.67;;;20.50;38.60;;;;;;5038144;28;20031;-77
2020/12/10 00:12:56;;;;;;;1.65;0.98;;;20.40;38.50;;;;;;5064272;28;20046;-79
2020/12/10 00:15:22;;;;;;;2.85;1.42;;;20.50;38.50;;;;;;5057504;28;20373;-77
2020/12/10 00:17:48;;;;;;;2.38;0.95;;;20.40;38.40;;;;;;5039234;28;20036;-76
2020/12/10 00:20:13;;;;;;;0.55;0.52;;;20.40;38.30;;;;;;5055478;28;20071;-77
2020/12/10 00:22:39;;;;;;;1.02;0.98;;;20.40;38.30;;;;;;5059668;28;20041;-77
2020/12/10 00:25:05;;;;;;;0.95;0.88;;;20.40;38.40;;;;;;5036792;28;20116;-75
2020/12/10 00:27:37;;;;;;;3.28;1.50;;;20.30;38.30;;;;;;5062866;28;20027;-77
2020/12/10 00:30:04;;;;;;;0.93;0.30;;;20.30;38.30;;;;;;5045049;28;20138;-76
2020/12/10 00:32:30;;;;;;;1.73;1.10;;;20.30;38.30;;;;;;5037095;28;20029;-77
2020/12/10 00:35:06;;;;;;;3.10;1.63;;;20.30;38.50;;;;;;5074332;28;20035;-80
2020/12/10 00:37:32;;;;;;;1.27;1.10;;;20.30;38.60;;;;;;5061783;28;20029;-79
2020/12/10 00:39:58;;;;;;;0.28;0.28;;;20.20;38.50;;;;;;5036624;28;20099;-73
2020/12/10 00:42:23;;;;;;;2.15;0.77;;;20.20;39.10;;;;;;5061070;28;20531;-73
2020/12/10 00:44:49;;;;;;;1.55;0.68;;;20.20;38.40;;;;;;5055617;28;20392;-72
2020/12/10 00:47:18;;;;;;;4.15;1.83;;;20.20;38.40;;;;;;5030767;28;20032;-73
2020/12/10 00:49:44;;;;;;;0.20;0.20;;;20.20;38.50;;;;;;5047604;28;20530;-78
2020/12/10 00:52:10;;;;;;;0.52;0.52;;;20.20;38.60;;;;;;5054453;28;20118;-77
2020/12/10 00:54:36;;;;;;;1.88;1.27;;;20.20;38.60;;;;;;5055799;28;20046;-78
2020/12/10 00:57:01;;;;;;;1.27;1.05;;;20.20;38.50;;;;;;5041775;28;20120;-79
2020/12/10 00:59:35;;;;;;;2.10;1.50;;;20.20;38.60;;;;;;5073205;28;20550;-73
2020/12/10 01:02:00;;;;;;;3.55;1.40;;;20.20;38.50;;;;;;5038435;28;20115;-76
2020/12/10 01:04:26;;;;;;;1.05;0.85;;;20.20;38.60;;;;;;5060743;28;20492;-76
2020/12/10 01:06:51;;;;;;;3.30;1.85;;;20.20;38.60;;;;;;5016851;28;20530;-78
2020/12/10 01:09:17;;;;;;;1.83;1.20;;;20.20;38.60;;;;;;5056626;28;20025;-78
2020/12/10 01:11:42;;;;;;;0.85;0.40;;;20.20;38.60;;;;;;5071937;28;20075;-78
2020/12/10 01:14:08;;;;;;;2.60;1.67;;;20.20;38.60;;;;;;5058708;28;20041;-78
2020/12/10 01:16:35;;;;;;;0.63;0.47;;;20.20;38.60;;;;;;5063737;28;20064;-78
2020/12/10 01:19:00;;;;;;;0.47;0.38;;;20.20;38.60;;;;;;5059913;28;20559;-78
2020/12/10 01:21:33;;;;;;;0.50;0.30;;;20.10;38.50;;;;;;5037903;28;20060;-78
2020/12/10 01:23:59;;;;;;;0.80;0.45;;;20.10;38.60;;;;;;5032161;28;20045;-77
2020/12/10 01:26:28;;;;;;;0.30;0.30;;;20.10;38.20;;;;;;5030725;28;20017;-78
2020/12/10 01:28:53;;;;;;;0.98;0.75;;;20.00;37.90;;;;;;5035538;28;20042;-78
2020/12/10 01:31:19;;;;;;;2.30;1.33;;;20.00;38.00;;;;;;5022832;28;20033;-77
2020/12/10 01:33:44;;;;;;;1.02;0.93;;;20.00;38.10;;;;;;5017900;28;20508;-78
2020/12/10 01:36:16;;;;;;;0.30;0.10;;;20.00;38.10;;;;;;5035259;28;20033;-76
2020/12/10 01:38:41;;;;;;;3.92;1.38;;;19.90;38.00;;;;;;5018332;28;20044;-76
2020/12/10 01:41:07;;;;;;;3.85;1.52;;;20.00;38.10;;;;;;5042544;28;20492;-76
2020/12/10 01:43:32;;;;;;;1.30;1.08;;;19.90;38.10;;;;;;5040674;28;20371;-76
2020/12/10 01:45:58;;;;;;;3.13;1.90;;;19.90;38.10;;;;;;5030175;28;20473;-78
2020/12/10 01:48:23;;;;;;;3.55;1.77;;;19.90;38.10;;;;;;5044354;28;20512;-78
2020/12/10 01:50:49;;;;;;;0.43;0.43;;;19.90;38.30;;;;;;5013074;28;20503;-78
2020/12/10 01:53:14;;;;;;;2.92;1.50;;;19.90;38.40;;;;;;5032490;28;20055;-78
2020/12/10 01:55:40;;;;;;;2.08;1.65;;;19.90;38.40;;;;;;5020284;28;20068;-78
2020/12/10 01:58:05;;;;;;;2.30;1.35;;;19.90;38.50;;;;;;5017451;28;20029;-78
2020/12/10 02:00:31;;;;;;;2.78;1.70;;;19.90;38.40;;;;;;5018077;28;20036;-78
2020/12/10 02:02:57;;;;;;;1.20;0.70;;;19.90;38.50;;;;;;5041268;28;20078;-78
2020/12/10 02:05:22;;;;;;;4.38;2.25;;;19.90;38.60;;;;;;5051361;28;20039;-78
2020/12/10 02:07:48;;;;;;;1.23;0.65;;;19.90;38.50;;;;;;5048435;28;20109;-78
2020/12/10 02:10:13;;;;;;;3.67;1.60;;;19.90;38.70;;;;;;5040457;28;20127;-78
2020/12/10 02:12:40;;;;;;;3.75;1.35;;;19.90;38.60;;;;;;5046420;28;20029;-78
2020/12/10 02:15:06;;;;;;;2.90;1.70;;;19.90;38.70;;;;;;5026832;28;20039;-76
2020/12/10 02:17:32;;;;;;;3.42;2.03;;;19.80;38.60;;;;;;5003912;28;20108;-73
2020/12/10 02:19:57;;;;;;;3.25;1.50;;;19.80;38.70;;;;;;5029531;28;20490;-73
2020/12/10 02:22:23;;;;;;;3.03;1.73;;;19.90;38.90;;;;;;5028993;28;20045;-73
2020/12/10 02:24:49;;;;;;;3.70;1.80;;;19.90;38.90;;;;;;5032530;28;20061;-74
2020/12/10 02:27:14;;;;;;;2.95;1.42;;;19.80;38.90;;;;;;5035402;28;20511;-74
2020/12/10 02:29:40;;;;;;;3.38;2.10;;;19.80;38.90;;;;;;5051725;28;20442;-73
2020/12/10 02:32:06;;;;;;;2.40;1.77;;;19.80;38.90;;;;;;5040579;28;20454;-73
2020/12/10 02:34:32;;;;;;;3.00;2.15;;;19.80;38.90;;;;;;5028532;28;20390;-73
2020/12/10 02:36:58;;;;;;;1.88;1.00;;;19.80;38.80;;;;;;5031898;28;20045;-73
2020/12/10 02:40:10;;;;;;;4.88;2.50;;;19.80;38.90;;;;;;5033995;28;20033;-73
2020/12/10 02:42:35;;;;;;;4.07;2.28;;;19.80;38.90;;;;;;5043744;28;20100;-73
2020/12/10 02:45:01;;;;;;;3.22;2.05;;;19.80;38.90;;;;;;5050831;28;20160;-73
2020/12/10 02:47:30;;;;;;;3.15;2.30;;;19.80;38.90;;;;;;5029706;28;20021;-73
2020/12/10 02:49:55;;;;;;;3.05;2.38;;;19.80;38.90;;;;;;5040320;28;20022;-73
2020/12/10 02:52:21;;;;;;;4.00;2.10;;;19.80;38.90;;;;;;5040212;28;20580;-73
2020/12/10 02:54:46;;;;;;;3.28;1.88;;;19.80;38.90;;;;;;5021061;28;20546;-73
2020/12/10 02:57:12;;;;;;;3.78;1.98;;;19.80;38.90;;;;;;5035231;28;20033;-79
2020/12/10 02:59:37;;;;;;;3.75;2.58;;;19.80;38.90;;;;;;5053586;28;20037;-80
2020/12/10 03:05:25;;;;;;;4.07;2.17;;;19.90;38.90;;;;;;5038512;28;20036;-73
2020/12/10 03:07:50;;;;;;;2.00;1.13;;;19.80;38.80;;;;;;5014040;28;20033;-73
2020/12/10 03:10:16;;;;;;;3.20;1.98;;;19.80;38.80;;;;;;5031410;28;20477;-73
2020/12/10 03:12:41;;;;;;;4.22;2.28;;;19.80;38.80;;;;;;5015381;28;20520;-73
2020/12/10 03:15:07;;;;;;;3.13;1.83;;;19.80;38.90;;;;;;5040423;28;20378;-73
2020/12/10 03:17:33;;;;;;;4.05;2.05;;;19.80;38.90;;;;;;5033842;28;20390;-73
2020/12/10 03:19:58;;;;;;;3.45;1.83;;;19.80;39.00;;;;;;5035605;28;20037;-72
2020/12/10 03:22:24;;;;;;;6.55;2.38;;;19.80;38.90;;;;;;5041064;28;20077;-72
2020/12/10 03:24:49;;;;;;;4.25;2.47;;;19.80;38.90;;;;;;5042850;28;20092;-79
2020/12/10 03:27:15;;;;;;;2.70;1.83;;;19.80;38.90;;;;;;5041325;28;20029;-79
2020/12/10 03:29:41;;;;;;;4.15;2.58;;;19.80;39.00;;;;;;5031560;28;20103;-79
2020/12/10 03:32:06;;;;;;;4.88;2.97;;;19.80;38.90;;;;;;5039482;28;20026;-79
2020/12/10 03:34:32;;;;;;;5.78;2.92;;;19.80;39.60;;;;;;5024745;28;20420;-79
2020/12/10 03:37:00;;;;;;;4.15;2.33;;;19.80;39.00;;;;;;5033296;28;20029;-79
2020/12/10 03:39:27;;;;;;;4.38;2.67;;;19.80;39.00;;;;;;5014129;28;20042;-79
2020/12/10 03:41:53;;;;;;;3.30;2.25;;;19.80;38.90;;;;;;5027976;28;20099;-79
2020/12/10 03:44:28;;;;;;;4.80;2.70;;;19.80;38.90;;;;;;5016852;28;20037;-79
2020/12/10 03:46:54;;;;;;;1.20;0.63;;;19.70;38.90;;;;;;5034841;28;20091;-79
2020/12/10 03:49:19;;;;;;;4.43;2.40;;;19.70;39.60;;;;;;5018527;28;20021;-79
2020/12/10 03:51:45;;;;;;;3.55;2.55;;;19.70;38.90;;;;;;5030410;28;20117;-73
2020/12/10 03:54:10;;;;;;;1.35;0.73;;;19.70;39.00;;;;;;5000697;28;20104;-73
2020/12/10 03:56:36;;;;;;;3.40;1.80;;;19.70;39.00;;;;;;5030588;28;20067;-73
2020/12/10 03:59:02;;;;;;;4.38;2.45;;;19.70;39.00;;;;;;5032852;28;20025;-73
2020/12/10 04:01:28;;;;;;;5.88;3.25;;;19.70;39.00;;;;;;5015828;28;20039;-73
2020/12/10 04:03:54;;;;;;;6.03;2.95;;;19.70;39.10;;;;;;5003995;28;20037;-73
2020/12/10 04:06:19;;;;;;;5.93;3.25;;;19.70;39.00;;;;;;5016971;28;20036;-74
2020/12/10 04:08:45;;;;;;;6.95;3.30;;;19.70;39.10;;;;;;5026044;28;20056;-73
2020/12/10 04:11:11;;;;;;;4.88;2.25;;;19.70;39.10;;;;;;5008371;28;20076;-73
2020/12/10 04:13:36;;;;;;;7.97;3.90;;;19.70;39.10;;;;;;5024492;28;20025;-73
2020/12/10 04:16:02;;;;;;;4.93;2.08;;;19.70;39.10;;;;;;5019302;28;20032;-73
2020/12/10 04:18:31;;;;;;;5.55;2.25;;;19.70;39.10;;;;;;5051825;28;20076;-73
2020/12/10 04:20:57;;;;;;;6.43;3.55;;;19.60;39.00;;;;;;5021025;28;20120;-74
2020/12/10 04:23:23;;;;;;;4.50;2.40;;;19.70;39.10;;;;;;5012284;28;20175;-73
2020/12/10 04:25:55;;;;;;;2.80;1.55;;;19.70;39.10;;;;;;5018581;28;20029;-73
2020/12/10 04:28:36;;;;;;;6.30;2.65;;;19.60;39.00;;;;;;5029234;28;20404;-73
2020/12/10 04:31:01;;;;;;;5.85;2.90;;;19.70;39.00;;;;;;5035843;28;20103;-73
2020/12/10 04:33:27;;;;;;;7.90;3.67;;;19.70;39.00;;;;;;5052147;28;20028;-73
2020/12/10 04:35:53;;;;;;;4.43;2.88;;;19.70;39.00;;;;;;5039172;28;20396;-73
2020/12/10 04:38:18;;;;;;;7.05;3.40;;;19.70;39.00;;;;;;5037742;28;20064;-74
2020/12/10 04:40:44;;;;;;;6.22;3.47;;;19.70;38.90;;;;;;5049999;28;20064;-73
2020/12/10 04:43:11;;;;;;;5.70;3.20;;;19.70;39.00;;;;;;5043297;28;20033;-73
2020/12/10 04:45:37;;;;;;;5.78;3.42;;;19.70;39.00;;;;;;5038406;28;20040;-73
2020/12/10 04:48:02;;;;;;;7.00;3.50;;;19.70;38.90;;;;;;5056425;28;20021;-73
2020/12/10 04:50:31;;;;;;;6.68;3.60;;;19.70;39.00;;;;;;5039510;28;20059;-73
2020/12/10 04:52:57;;;;;;;5.95;3.20;;;19.60;38.90;;;;;;5043776;28;20079;-73
2020/12/10 04:55:22;;;;;;;5.30;2.63;;;19.70;39.00;;;;;;5043365;28;20040;-73
2020/12/10 04:57:48;;;;;;;7.28;3.60;;;19.70;39.00;;;;;;5041874;28;20463;-73
2020/12/10 05:00:16;;;;;;;4.97;2.33;;;19.60;38.90;;;;;;5038061;28;20036;-73
2020/12/10 05:02:45;;;;;;;0.52;0.52;;;19.70;39.60;;;;;;5041956;28;20558;-73
2020/12/10 05:05:40;;;;;;;0.70;0.50;;;19.70;39.00;;;;;;5067061;28;20017;-73
2020/12/10 05:08:05;;;;;;;0.50;0.40;;;19.70;39.00;;;;;;5003600;28;20041;-72
2020/12/10 05:10:44;;;;;;;0.65;0.30;;;19.70;39.00;;;;;;5012526;28;20053;-73
2020/12/10 05:13:11;;;;;;;1.85;0.50;;;19.70;38.90;;;;;;5010044;28;20042;-74
2020/12/10 05:15:38;;;;;;;0.65;0.50;;;19.70;38.90;;;;;;5009691;28;20061;-75
2020/12/10 05:18:11;;;;;;;0.52;0.38;;;19.70;39.00;;;;;;5025278;28;20034;-74
2020/12/10 05:20:57;;;;;;;0.85;0.30;;;19.80;39.00;;;;;;5015112;28;20038;-73
2020/12/10 05:23:31;;;;;;;0.95;0.60;;;19.80;38.90;;;;;;4985847;28;20038;-73
2020/12/10 05:25:57;;;;;;;0.30;0.30;;;19.80;38.80;;;;;;5030865;28;20040;-73
2020/12/10 05:28:24;;;;;;;0.50;0.32;;;19.90;38.80;;;;;;5032618;28;20510;-73
2020/12/10 05:31:04;;;;;;;1.83;0.40;;;19.90;38.70;;;;;;5015966;28;20124;-73
2020/12/10 05:36:51;;;;;;;1.20;0.40;;;20.10;38.60;;;;;;5032007;28;20064;-73
2020/12/10 05:42:45;;;;;;;0.85;0.47;;;20.10;38.50;;;;;;5032092;28;20087;-73
2020/12/10 05:45:15;;;;;;;0.55;0.50;;;20.20;38.50;;;;;;5015469;28;20032;-78
2020/12/10 05:47:47;;;;;;;0.85;0.40;;;20.20;39.10;;;;;;5056608;28;20017;-79
2020/12/10 05:50:13;;;;;;;0.47;0.47;;;20.20;38.40;;;;;;5040834;28;20033;-73
2020/12/10 05:52:43;;;;;;;0.68;0.30;;;20.20;38.40;;;;;;5047653;28;20041;-73
2020/12/10 05:55:09;;;;;;;0.80;0.38;;;20.30;38.30;;;;;;5037466;28;20033;-73
2020/12/10 05:57:35;;;;;;;1.00;0.50;;;20.30;38.30;;;;;;5043091;28;20033;-73
2020/12/10 06:00:03;;;;;;;0.52;0.40;;;20.30;38.20;;;;;;5056871;28;20079;-73
2020/12/10 06:02:30;;;;;;;0.40;0.40;;;20.30;38.30;;;;;;5050292;28;20017;-73
2020/12/10 06:04:55;;;;;;;0.30;0.30;;;20.40;38.30;;;;;;5036519;28;20017;-73
2020/12/10 06:07:21;;;;;;;0.35;0.20;;;20.40;38.20;;;;;;5048829;28;20480;-73
2020/12/10 06:09:46;;;;;;;1.35;0.70;;;20.30;38.20;;;;;;5038115;28;20028;-73
2020/12/10 06:12:12;;;;;;;0.60;0.50;;;20.40;38.30;;;;;;5055764;28;20056;-73
2020/12/10 06:14:58;;;;;;;0.85;0.80;;;20.30;38.20;;;;;;5068021;28;20043;-73
2020/12/10 06:17:24;;;;;;;0.85;0.60;;;20.40;38.20;;;;;;5036808;28;20029;-72
2020/12/10 06:19:49;;;;;;;1.85;0.68;;;20.40;38.20;;;;;;5044652;28;20510;-73
2020/12/10 06:22:28;;;;;;;2.00;0.60;;;20.40;38.20;;;;;;5036577;28;20041;-73
2020/12/10 06:24:58;;;;;;;1.00;0.63;;;20.40;38.30;;;;;;5032538;28;20033;-76
2020/12/10 06:27:27;;;;;;;1.05;0.50;;;20.40;38.30;;;;;;5056084;28;20032;-73
2020/12/10 06:30:13;;;;;;;3.42;0.90;;;20.40;38.30;;;;;;5044910;28;20078;-76
2020/12/10 06:32:45;;;;;;;0.40;0.40;;;20.40;38.20;;;;;;5054482;28;20421;-76
2020/12/10 06:35:35;;;;;;;1.15;0.65;;;20.40;38.30;;;;;;5036531;28;20040;-75
2020/12/10 06:38:04;;;;;;;1.17;0.63;;;20.40;38.30;;;;;;5039412;28;20107;-73
2020/12/10 06:40:32;;;;;;;1.08;0.68;;;20.40;38.30;;;;;;5022689;28;20099;-73
2020/12/10 06:42:57;;;;;;;1.23;0.45;;;20.40;38.30;;;;;;5036433;28;20075;-73
2020/12/10 06:45:24;;;;;;;1.27;0.47;;;20.40;38.30;;;;;;5037429;28;20041;-73
2020/12/10 06:47:49;;;;;;;0.65;0.45;;;20.40;38.30;;;;;;5035446;28;20030;-73
2020/12/10 06:50:26;;;;;;;1.60;0.40;;;20.40;38.40;;;;;;5042907;28;20048;-73
2020/12/10 06:53:11;;;;;;;1.17;0.60;;;20.40;38.40;;;;;;5035638;28;20032;-73
2020/12/10 06:56:11;;;;;;;1.15;0.50;;;20.40;38.30;;;;;;5059871;28;20385;-73
2020/12/10 06:58:37;;;;;;;0.63;0.50;;;20.40;38.40;;;;;;4980632;28;20034;-73
2020/12/10 07:01:38;;;;;;;1.85;0.30;;;20.40;38.40;;;;;;4972389;28;20046;-73
2020/12/10 07:07:18;;;;;;;1.35;0.73;;;20.40;38.40;;;;;;4978241;28;20409;-80
2020/12/10 07:09:51;;;;;;;1.52;0.70;;;20.40;38.50;;;;;;4959951;28;20065;-80
2020/12/10 07:12:21;;;;;;;2.25;0.68;;;20.40;38.40;;;;;;4991173;28;20034;-79
2020/12/10 07:14:46;;;;;;;11.85;0.70;;;20.40;38.40;;;;;;4980265;28;20130;-79
2020/12/10 07:17:12;;;;;;;1.05;0.50;;;20.40;38.40;;;;;;4978511;28;20561;-79
2020/12/10 07:19:38;;;;;;;0.52;0.40;;;20.50;38.40;;;;;;4979872;28;20027;-80
2020/12/10 07:22:03;;;;;;;0.25;0.25;;;20.40;38.40;;;;;;4987060;28;20446;-79
2020/12/10 07:24:29;;;;;;;0.57;0.47;;;20.40;38.40;;;;;;4984390;28;20409;-80
2020/12/10 07:26:54;;;;;;;2.85;0.40;;;20.40;38.40;;;;;;4968767;28;20561;-80
2020/12/10 07:29:20;;;;;;;1.30;0.50;;;20.40;38.40;;;;;;4975477;28;20066;-73
2020/12/10 07:31:46;;;;;;;1.55;0.52;;;20.40;38.40;;;;;;4973858;28;20034;-77
2020/12/10 07:34:11;;;;;;;0.85;0.60;;;20.40;38.40;;;;;;5014157;28;20094;-78
2020/12/10 07:36:55;;;;;;;0.65;0.60;;;20.50;38.40;;;;;;5067618;28;20017;-79
2020/12/10 07:39:30;;;;;;;0.63;0.60;;;20.50;38.50;;;;;;5039749;28;20480;-77
2020/12/10 07:41:56;;;;;;;0.70;0.40;;;20.50;38.40;;;;;;5019103;28;20040;-78
2020/12/10 07:44:26;;;;;;;0.50;0.30;;;20.50;38.40;;;;;;5035431;28;20083;-78
2020/12/10 07:46:52;;;;;;;0.40;0.32;;;20.50;38.40;;;;;;5071250;28;20028;-79
2020/12/10 07:49:28;;;;;;;0.85;0.40;;;20.40;38.40;;;;;;5050727;28;20045;-76
2020/12/10 07:52:23;;;;;;;2.28;0.50;;;20.50;38.50;;;;;;5071856;28;20158;-76
2020/12/10 07:54:55;;;;;;;0.30;0.30;;;20.40;38.40;;;;;;4997599;28;20406;-76
2020/12/10 07:57:36;;;;;;;7.72;0.80;;;20.50;38.40;;;;;;4993971;28;20128;-76
2020/12/10 08:00:06;;;;;;;1.00;0.50;;;20.50;38.40;;;;;;4996469;28;20037;-76
2020/12/10 08:03:27;;;;;;;0.88;0.65;;;20.50;38.40;;;;;;5027714;28;20041;-76
2020/12/10 08:06:05;;;;;;;1.27;0.60;;;20.60;38.40;;;;;;5030054;28;20041;-76
2020/12/10 08:08:39;;;;;;;0.93;0.65;;;20.60;38.20;;;;;;4999186;28;20038;-76
2020/12/10 08:11:09;;;;;;;0.35;0.35;;;20.60;38.20;;;;;;5029709;28;20120;-76
2020/12/10 08:13:34;;;;;;;0.47;0.47;;;20.60;38.20;;;;;;5030477;28;20199;-76
2020/12/10 08:16:07;;;;;;;0.77;0.40;;;20.60;38.20;;;;;;4993097;28;20057;-76
2020/12/10 08:18:33;;;;;;;0.40;0.30;;;20.60;38.20;;;;;;4995980;28;20049;-76
2020/12/10 08:20:59;;;;;;;0.80;0.80;;;20.60;38.20;;;;;;5012313;28;20029;-76
2020/12/10 08:23:25;;;;;;;1.20;0.55;;;20.60;38.20;;;;;;5025796;28;20116;-76
2020/12/10 08:26:08;;;;;;;0.40;0.40;;;20.60;38.20;;;;;;5028722;28;20441;-76
2020/12/10 08:28:33;;;;;;;1.80;0.50;;;20.50;38.20;;;;;;5013864;28;20116;-75
2020/12/10 08:30:59;;;;;;;0.68;0.68;;;20.50;38.30;;;;;;5047843;28;20155;-75
2020/12/10 08:33:37;;;;;;;1.00;0.32;;;20.50;38.30;;;;;;5067346;28;20110;-75
2020/12/10 08:36:04;;;;;;;0.68;0.55;;;20.50;38.30;;;;;;5037919;28;20116;-75
2020/12/10 08:38:36;;;;;;;1.42;0.40;;;20.50;38.30;;;;;;5043069;28;20035;-75
2020/12/10 08:41:05;;;;;;;1.55;0.75;;;20.50;38.30;;;;;;5072080;28;20116;-75
2020/12/10 08:43:31;;;;;;;0.80;0.38;;;20.50;38.20;;;;;;5062932;28;20416;-75
2020/12/10 08:46:15;;;;;;;1.25;0.63;;;20.60;38.20;;;;;;5043151;28;20021;-75
2020/12/10 08:48:43;;;;;;;1.02;0.47;;;20.60;38.20;;;;;;5039918;28;20020;-75
2020/12/10 08:51:09;;;;;;;0.95;0.60;;;20.60;38.20;;;;;;5035951;28;20021;-75
2020/12/10 08:53:38;;;;;;;0.80;0.45;;;20.60;38.10;;;;;;5067229;28;20031;-75
2020/12/10 08:56:04;;;;;;;1.80;0.65;;;20.60;38.10;;;;;;5020843;28;20051;-74
2020/12/10 08:58:30;;;;;;;0.50;0.50;;;20.60;38.00;;;;;;5035740;28;20514;-74
2020/12/10 09:00:56;;;;;;;1.08;0.60;;;20.70;38.10;;;;;;5051697;28;20024;-76
2020/12/10 09:03:23;;;;;;;0.38;0.30;;;20.60;38.10;;;;;;5022586;28;20040;-73
2020/12/10 09:05:49;;;;;;;2.42;0.57;;;20.70;38.10;;;;;;5051451;28;20035;-73
2020/12/10 09:08:15;;;;;;;1.75;0.68;;;20.60;38.10;;;;;;5048433;28;20047;-73
2020/12/10 09:10:40;;;;;;;0.63;0.52;;;20.60;38.10;;;;;;5066722;28;20021;-73
2020/12/10 09:13:08;;;;;;;0.82;0.30;;;20.60;38.20;;;;;;5038622;28;20048;-73
2020/12/10 09:15:34;;;;;;;0.35;0.35;;;20.60;38.20;;;;;;5043879;28;20092;-75
2020/12/10 09:18:00;;;;;;;0.52;0.52;;;20.60;38.20;;;;;;5038116;28;20025;-75
2020/12/10 09:20:26;;;;;;;1.52;0.73;;;20.60;38.30;;;;;;5041821;28;20058;-74
2020/12/10 09:22:52;;;;;;;0.95;0.50;;;20.60;38.30;;;;;;5068604;28;20041;-74
2020/12/10 09:25:39;;;;;;;0.85;0.60;;;20.60;38.40;;;;;;5050201;28;20025;-75
2020/12/10 09:28:08;;;;;;;0.45;0.45;;;20.70;38.40;;;;;;5055800;28;20111;-74
2020/12/10 09:30:33;;;;;;;2.20;0.52;;;20.70;38.30;;;;;;5053062;28;20021;-74
2020/12/10 09:32:59;;;;;;;2.30;0.80;;;20.70;38.30;;;;;;5074151;28;20107;-74
2020/12/10 09:35:24;;;;;;;3.33;0.70;;;20.70;38.30;;;;;;5046012;28;20044;-75
2020/12/10 09:37:50;;;;;;;0.50;0.40;;;20.80;38.30;;;;;;5061306;28;20499;-74
2020/12/10 09:40:16;;;;;;;0.50;0.40;;;20.80;38.20;;;;;;5050415;28;20033;-74
2020/12/10 09:42:43;;;;;;;0.40;0.38;;;20.80;38.30;;;;;;5042770;28;20033;-74
2020/12/10 09:45:08;;;;;;;1.38;0.77;;;20.80;38.20;;;;;;5050860;28;20068;-74
2020/12/10 09:47:34;;;;;;;1.75;0.82;;;20.80;38.20;;;;;;5060781;28;20480;-76
2020/12/10 09:50:00;;;;;;;9.32;0.75;;;20.80;38.20;;;;;;5076372;28;20017;-76
2020/12/10 09:52:26;;;;;;;4.20;0.68;;;20.80;38.20;;;;;;5070707;28;20056;-76
2020/12/10 09:57:33;;;;;;;3.20;0.93;;;20.90;38.10;;;;;;5054112;28;20036;-76
2020/12/10 09:59:59;;;;;;;1.23;0.77;;;20.90;38.10;;;;;;5064633;28;20036;-76
2020/12/10 10:02:31;;;;;;;1.05;0.60;;;20.90;38.10;;;;;;5074106;28;20050;-76
2020/12/10 10:04:57;;;;;;;2.58;0.85;;;20.90;38.00;;;;;;5068469;28;20020;-76
2020/12/10 10:07:22;;;;;;;1.45;0.95;;;20.90;38.00;;;;;;5079411;28;20403;-75
2020/12/10 10:09:48;;;;;;;1.30;0.82;;;20.90;38.00;;;;;;5070359;28;20047;-76
2020/12/10 10:12:14;;;;;;;2.20;0.45;;;20.90;37.90;;;;;;5029978;28;20037;-76
2020/12/10 10:14:41;;;;;;;1.25;0.63;;;20.90;37.80;;;;;;5063011;28;20055;-76
2020/12/10 10:17:09;;;;;;;1.00;0.40;;;20.90;37.80;;;;;;5066483;28;20103;-76
2020/12/10 10:19:36;;;;;;;0.75;0.75;;;21.00;37.80;;;;;;5044540;28;20079;-73
2020/12/10 10:22:02;;;;;;;0.65;0.65;;;20.90;37.80;;;;;;5059617;28;20036;-74
2020/12/10 10:24:28;;;;;;;1.38;0.85;;;20.90;37.80;;;;;;5044007;28;20043;-73
2020/12/10 10:26:54;;;;;;;1.48;0.70;;;20.90;37.80;;;;;;5070181;28;20026;-73
2020/12/10 10:29:21;;;;;;;0.88;0.50;;;20.90;37.80;;;;;;5066473;28;20028;-74
2020/12/10 10:31:50;;;;;;;0.70;0.70;;;20.90;37.80;;;;;;5052939;28;20017;-73
2020/12/10 10:34:16;;;;;;;0.85;0.70;;;20.90;37.80;;;;;;5020352;28;20037;-73
2020/12/10 10:36:42;;;;;;;1.55;0.55;;;20.90;37.80;;;;;;5042583;28;20103;-74
2020/12/10 10:39:08;;;;;;;1.27;0.93;;;20.90;37.80;;;;;;5047133;28;20020;-73
2020/12/10 10:41:42;;;;;;;0.65;0.60;;;20.90;37.80;;;;;;5032340;28;20082;-73
2020/12/10 10:44:07;;;;;;;0.50;0.40;;;20.90;37.70;;;;;;5062411;28;20060;-73
2020/12/10 10:46:33;;;;;;;2.45;0.90;;;20.90;37.80;;;;;;5057637;28;20056;-74
2020/12/10 10:49:17;;;;;;;0.90;0.40;;;20.90;37.80;;;;;;5051498;28;20109;-74
2020/12/10 10:51:46;;;;;;;0.50;0.40;;;20.90;38.00;;;;;;5048336;28;20045;-76
2020/12/10 10:54:11;;;;;;;1.48;0.60;;;20.90;37.70;;;;;;5070805;28;20021;-75
2020/12/10 10:56:37;;;;;;;0.98;0.60;;;21.00;37.90;;;;;;5068308;28;20381;-75
2020/12/10 10:59:04;;;;;;;0.85;0.63;;;21.00;37.80;;;;;;5062635;28;20020;-76
2020/12/10 11:01:29;;;;;;;1.38;0.80;;;21.10;37.70;;;;;;5047856;28;20038;-75
2020/12/10 11:03:55;;;;;;;1.35;0.93;;;21.10;37.60;;;;;;5050066;28;20048;-76
2020/12/10 11:06:21;;;;;;;1.63;0.65;;;21.00;37.50;;;;;;5065230;28;20021;-75
2020/12/10 11:08:46;;;;;;;3.03;0.40;;;21.00;37.50;;;;;;5037453;28;20025;-75
2020/12/10 11:11:16;;;;;;;1.15;0.65;;;21.00;37.50;;;;;;5044551;28;20052;-75
2020/12/10 11:13:42;;;;;;;1.27;0.57;;;21.00;37.50;;;;;;5058546;28;20036;-74
2020/12/10 11:16:14;;;;;;;1.25;0.57;;;21.10;37.50;;;;;;5041732;28;20608;-75
2020/12/10 11:18:41;;;;;;;0.75;0.68;;;21.10;37.50;;;;;;5042944;28;20035;-75
2020/12/10 11:21:06;;;;;;;2.30;0.65;;;21.10;37.50;;;;;;5047530;28;20036;-74
2020/12/10 11:23:32;;;;;;;0.73;0.40;;;21.10;37.40;;;;;;5043910;28;20041;-73
2020/12/10 11:25:57;;;;;;;1.50;1.05;;;21.10;37.40;;;;;;5041425;28;20064;-75
2020/12/10 11:28:23;;;;;;;0.38;0.38;;;21.10;38.00;;;;;;5036048;28;20096;-74
2020/12/10 11:30:49;;;;;;;1.42;0.52;;;21.10;37.40;;;;;;5028871;28;20083;-74
2020/12/10 11:33:14;;;;;;;1.85;0.98;;;21.10;37.40;;;;;;5046980;28;20472;-74
2020/12/10 11:35:40;;;;;;;0.73;0.70;;;21.10;37.40;;;;;;5040107;28;20025;-74
2020/12/10 11:38:05;;;;;;;1.70;0.52;;;21.10;37.40;;;;;;5037737;28;20030;-74
2020/12/10 11:40:31;;;;;;;2.35;0.98;;;21.00;37.30;;;;;;5059780;28;20029;-75
2020/12/10 11:42:56;;;;;;;0.60;0.57;;;21.00;37.40;;;;;;5022741;28;20067;-75
2020/12/10 11:45:22;;;;;;;1.45;0.65;;;21.00;37.40;;;;;;5032280;28;20033;-75
2020/12/10 11:47:49;;;;;;;0.95;0.70;;;21.10;37.40;;;;;;5016991;28;20037;-75
2020/12/10 11:50:20;;;;;;;1.33;0.80;;;21.10;37.50;;;;;;5049914;28;20075;-75
2020/12/10 11:52:49;;;;;;;0.85;0.47;;;21.10;37.40;;;;;;5010343;28;20526;-75
2020/12/10 11:55:15;;;;;;;2.50;1.25;;;21.10;37.40;;;;;;5016438;28;20045;-76
2020/12/10 11:57:41;;;;;;;0.70;0.60;;;21.10;38.00;;;;;;5042770;28;20087;-75
2020/12/10 12:00:07;;;;;;;0.73;0.70;;;21.10;37.40;;;;;;5019051;28;20144;-75
2020/12/10 12:02:32;;;;;;;3.08;1.10;;;21.10;37.30;;;;;;5059430;28;20029;-75
2020/12/10 12:04:58;;;;;;;0.63;0.60;;;21.10;37.20;;;;;;5048475;28;20032;-73
2020/12/10 12:07:23;;;;;;;0.60;0.55;;;21.10;37.30;;;;;;5052162;28;20029;-74
2020/12/10 12:09:52;;;;;;;1.38;0.80;;;21.10;37.30;;;;;;5018092;28;20025;-75
2020/12/10 12:12:18;;;;;;;1.08;0.80;;;21.10;37.40;;;;;;5028212;28;20060;-74
2020/12/10 12:14:43;;;;;;;0.85;0.30;;;21.10;37.40;;;;;;5018180;28;20041;-75
2020/12/10 12:17:09;;;;;;;0.77;0.43;;;21.10;37.40;;;;;;5027197;28;20123;-75
2020/12/10 12:19:34;;;;;;;0.93;0.43;;;21.00;37.40;;;;;;5023469;28;20041;-74
2020/12/10 12:22:01;;;;;;;2.30;0.95;;;21.00;37.50;;;;;;5022913;28;20041;-74
2020/12/10 12:24:26;;;;;;;1.20;0.70;;;21.00;37.40;;;;;;5023941;28;20059;-74
2020/12/10 12:26:52;;;;;;;1.73;0.70;;;21.00;37.50;;;;;;5015626;28;20025;-74
2020/12/10 12:29:17;;;;;;;0.50;0.50;;;21.00;37.50;;;;;;5036721;28;20029;-74
2020/12/10 12:31:43;;;;;;;2.00;0.85;;;21.00;37.50;;;;;;5039533;28;20037;-73
2020/12/10 12:34:08;;;;;;;1.83;0.77;;;21.00;37.50;;;;;;5020515;28;20493;-74
2020/12/10 12:36:37;;;;;;;0.90;0.57;;;21.00;37.60;;;;;;5043091;28;20385;-74
2020/12/10 12:39:04;;;;;;;0.95;0.70;;;20.90;37.50;;;;;;5032325;28;20396;-75
2020/12/10 12:41:30;;;;;;;0.80;0.50;;;20.90;37.60;;;;;;5018101;28;20059;-75
2020/12/10 12:43:56;;;;;;;0.98;0.65;;;20.90;37.70;;;;;;5041377;28;20116;-76
2020/12/10 12:46:22;;;;;;;1.92;0.70;;;20.90;37.70;;;;;;5036990;28;20072;-75
2020/12/10 12:48:49;;;;;;;0.82;0.63;;;20.90;37.70;;;;;;5025136;28;20105;-75
2020/12/10 12:51:16;;;;;;;1.30;0.55;;;20.90;37.70;;;;;;5022772;28;20113;-76
2020/12/10 12:53:41;;;;;;;0.88;0.47;;;20.90;37.70;;;;;;5022584;28;20044;-75
2020/12/10 12:56:16;;;;;;;1.23;0.70;;;20.90;37.70;;;;;;5045515;28;20032;-74
2020/12/10 12:58:48;;;;;;;0.22;0.22;;;20.80;37.70;;;;;;5034030;28;20397;-74
2020/12/10 13:01:14;;;;;;;2.45;0.90;;;20.80;37.70;;;;;;5038490;28;20031;-75
2020/12/10 13:03:40;;;;;;;4.57;0.73;;;20.80;37.80;;;;;;5053410;28;20090;-74
2020/12/10 13:06:09;;;;;;;0.60;0.60;;;20.80;37.80;;;;;;5056342;28;20017;-75
2020/12/10 13:08:40;;;;;;;0.60;0.60;;;20.90;37.80;;;;;;5006121;28;20018;-75